Time;durP1;ratioP1;P1;durP2;ratioP2;P2;SDS_P1;SDS_P2;PMS_P1;PMS_P2;Temp;Humidity;BMP_temperature;BMP_pressure;BME280_temperature;BME280_humidity;BME280_pressure;Samples;Min_cycle;Max_cycle;Signal;HPM_P1;HPM_P2
2021/07/11 00:00:03;;;;;;;11.00;8.75;;;;;;;24.73;58.28;100428.73;1826316;77;22182;-59
2021/07/11 00:02:37;;;;;;;10.90;9.35;;;;;;;24.68;58.48;100430.00;1820274;77;22158;-58
2021/07/11 00:05:29;;;;;;;11.03;8.88;;;;;;;24.66;58.51;100426.09;1834457;77;22136;-59
2021/07/11 00:08:03;;;;;;;12.78;9.38;;;;;;;24.68;58.46;100435.39;1819033;77;22218;-57
2021/07/11 00:10:36;;;;;;;12.50;10.03;;;;;;;24.59;58.52;100426.98;1833927;77;22181;-59
2021/07/11 00:13:28;;;;;;;11.78;9.30;;;;;;;24.58;58.63;100429.80;1803513;77;22237;-59
2021/07/11 00:16:01;;;;;;;11.08;9.30;;;;;;;24.48;58.92;100432.29;1828631;77;22151;-58
2021/07/11 00:18:34;;;;;;;11.03;9.75;;;;;;;24.41;59.12;100433.18;1804591;77;22154;-57
2021/07/11 00:21:07;;;;;;;11.28;9.60;;;;;;;24.38;59.37;100429.36;1839069;77;22175;-57
2021/07/11 00:23:41;;;;;;;13.85;9.65;;;;;;;24.32;59.55;100431.13;1798079;77;22212;-57
2021/07/11 00:26:14;;;;;;;12.63;9.28;;;;;;;24.25;59.76;100433.39;1852823;77;22179;-57
2021/07/11 00:28:47;;;;;;;16.02;9.33;;;;;;;24.20;59.97;100431.03;1797371;77;22191;-59
2021/07/11 00:31:20;;;;;;;11.15;9.90;;;;;;;24.19;60.05;100431.13;1813392;77;22546;-57
2021/07/11 00:34:13;;;;;;;10.85;9.73;;;;;;;24.29;59.86;100432.22;1808903;77;22214;-59
2021/07/11 00:36:46;;;;;;;16.17;9.23;;;;;;;24.40;59.58;100435.50;1824246;77;22151;-59
2021/07/11 00:39:38;;;;;;;11.70;9.45;;;;;;;24.35;59.70;100437.64;1813070;77;22198;-57
2021/07/11 00:42:15;;;;;;;10.40;9.30;;;;;;;24.34;59.72;100435.92;1844175;77;22185;-57
2021/07/11 00:45:10;;;;;;;10.55;9.40;;;;;;;24.39;59.66;100436.96;1819602;77;22202;-59
2021/07/11 00:47:44;;;;;;;12.03;10.18;;;;;;;24.45;59.53;100432.00;1831197;77;22183;-57
2021/07/11 00:50:17;;;;;;;12.10;10.35;;;;;;;24.28;59.96;100437.22;1816702;77;22613;-59
2021/07/11 00:52:51;;;;;;;10.45;9.35;;;;;;;24.18;60.22;100431.62;1832371;77;22214;-59
2021/07/11 00:55:24;;;;;;;10.95;9.48;;;;;;;24.16;60.27;100429.98;1852817;77;22594;-59
2021/07/11 00:57:57;;;;;;;17.02;10.38;;;;;;;24.07;60.42;100430.14;1831307;77;22186;-60
2021/07/11 01:00:55;;;;;;;11.15;9.95;;;;;;;24.22;60.03;100431.41;1836135;77;22177;-58
2021/07/11 01:03:34;;;;;;;12.65;10.28;;;;;;;24.23;59.92;100429.10;1837054;77;22201;-57
2021/07/11 01:06:08;;;;;;;12.93;9.78;;;;;;;24.27;59.82;100426.58;1826091;77;22171;-59
2021/07/11 01:08:54;;;;;;;12.68;10.15;;;;;;;24.26;59.79;100418.14;1806228;77;22548;-59
2021/07/11 01:11:58;;;;;;;14.30;9.73;;;;;;;24.14;60.07;100415.32;1834441;77;22136;-60
2021/07/11 01:14:32;;;;;;;11.63;9.93;;;;;;;24.25;59.75;100415.91;1790352;77;23262;-59
2021/07/11 01:17:05;;;;;;;11.88;9.88;;;;;;;24.25;59.76;100414.56;1811320;77;22151;-57
2021/07/11 01:20:07;;;;;;;16.62;10.03;;;;;;;24.28;59.79;100410.82;1820521;77;22201;-59
2021/07/11 01:22:52;;;;;;;16.20;9.98;;;;;;;24.32;59.67;100408.27;1831247;77;22179;-58
2021/07/11 01:25:35;;;;;;;14.25;11.97;;;;;;;24.27;59.67;100401.88;1809778;77;28349;-60
2021/07/11 01:28:12;;;;;;;15.70;9.80;;;;;;;24.27;59.82;100402.38;1802123;77;22215;-60
2021/07/11 01:30:50;;;;;;;11.12;9.93;;;;;;;24.38;59.48;100404.31;1834465;77;22203;-60
2021/07/11 01:33:26;;;;;;;13.58;9.75;;;;;;;24.26;59.66;100410.06;1820538;77;22215;-59
2021/07/11 01:36:00;;;;;;;13.75;11.57;;;;;;;24.23;59.69;100407.09;1804102;77;28053;-57
2021/07/11 01:38:53;;;;;;;13.60;10.45;;;;;;;24.12;60.03;100404.27;1799446;77;22626;-57
2021/07/11 01:41:27;;;;;;;12.85;10.15;;;;;;;24.12;60.09;100401.59;1837392;77;22161;-60
2021/07/11 01:44:21;;;;;;;11.57;10.13;;;;;;;24.20;59.85;100401.45;1789933;77;22220;-60
2021/07/11 01:46:54;;;;;;;12.45;10.35;;;;;;;24.25;59.75;100400.28;1808825;77;22170;-57
2021/07/11 01:49:27;;;;;;;14.20;10.23;;;;;;;24.29;59.60;100400.41;1805496;77;22167;-60
2021/07/11 01:52:03;;;;;;;11.48;10.32;;;;;;;24.16;59.90;100406.66;1830782;77;22175;-57
2021/07/11 01:54:55;;;;;;;12.18;10.28;;;;;;;24.15;59.91;100401.38;1834444;77;22583;-57
2021/07/11 01:57:28;;;;;;;10.98;9.80;;;;;;;24.14;59.91;100411.29;1836148;77;22193;-60
2021/07/11 02:00:08;;;;;;;12.98;11.08;;;;;;;23.98;60.28;100406.55;1834514;77;22184;-60
2021/07/11 02:03:01;;;;;;;11.08;9.88;;;;;;;24.07;60.00;100404.61;1805801;77;22215;-57
2021/07/11 02:05:35;;;;;;;12.78;11.45;;;;;;;24.06;59.96;100409.61;1852824;77;22586;-58
2021/07/11 02:08:08;;;;;;;13.83;11.22;;;;;;;24.06;59.96;100409.61;1812968;77;22211;-60
2021/07/11 02:11:01;;;;;;;13.98;10.28;;;;;;;24.04;59.98;100411.53;1824921;77;22143;-57
2021/07/11 02:13:45;;;;;;;17.92;11.83;;;;;;;24.02;59.97;100408.09;1810503;77;22213;-57
2021/07/11 02:17:02;;;;;;;13.22;10.13;;;;;;;23.93;60.20;100413.59;1851841;77;22179;-58
2021/07/11 02:19:38;;;;;;;10.72;9.60;;;;;;;23.89;60.27;100413.42;1816860;77;22208;-59
2021/07/11 02:22:34;;;;;;;13.98;10.35;;;;;;;23.87;60.29;100406.78;1835988;77;22585;-60
2021/07/11 02:25:27;;;;;;;17.73;10.88;;;;;;;23.79;60.47;100415.88;1852750;77;22558;-60
2021/07/11 02:28:01;;;;;;;15.05;10.43;;;;;;;23.78;60.60;100414.16;1811462;77;22219;-60
2021/07/11 02:30:41;;;;;;;14.35;10.93;;;;;;;23.82;60.59;100417.02;1819967;77;22167;-57
2021/07/11 02:33:14;;;;;;;11.80;10.58;;;;;;;23.86;60.54;100413.13;1822856;77;22202;-57
2021/07/11 02:35:47;;;;;;;13.48;10.88;;;;;;;23.84;60.62;100414.20;1836053;77;22142;-58
2021/07/11 02:38:20;;;;;;;12.23;10.70;;;;;;;23.83;60.73;100421.42;1817733;77;22218;-57
2021/07/11 02:41:14;;;;;;;12.63;11.20;;;;;;;23.85;60.73;100418.12;1834418;77;22192;-57
2021/07/11 02:43:47;;;;;;;12.95;10.90;;;;;;;23.86;60.79;100424.38;1814545;77;22215;-57
2021/07/11 02:46:47;;;;;;;14.93;11.35;;;;;;;23.87;60.82;100425.59;1817355;77;22143;-60
2021/07/11 02:49:22;;;;;;;13.58;11.55;;;;;;;23.88;60.86;100418.41;1807137;77;22194;-60
2021/07/11 02:52:17;;;;;;;11.95;10.43;;;;;;;23.93;60.81;100420.31;1843271;77;22539;-60
2021/07/11 02:54:59;;;;;;;13.80;10.80;;;;;;;23.97;60.91;100427.67;1834540;77;22196;-57
2021/07/11 02:57:33;;;;;;;12.98;11.55;;;;;;;23.97;60.84;100430.36;1824643;77;22158;-57
2021/07/11 03:00:08;;;;;;;14.60;10.85;;;;;;;24.06;60.75;100417.67;1843438;77;22213;-57
2021/07/11 03:03:01;;;;;;;12.65;10.93;;;;;;;24.12;60.67;100422.63;1825053;77;22558;-59
2021/07/11 03:05:34;;;;;;;13.15;11.12;;;;;;;24.20;60.53;100416.71;1828157;77;22147;-59
2021/07/11 03:08:08;;;;;;;11.97;10.78;;;;;;;24.25;60.61;100417.76;1807147;77;22669;-57
2021/07/11 03:10:41;;;;;;;12.98;11.12;;;;;;;24.29;60.52;100411.17;1815442;77;22171;-59
2021/07/11 03:13:35;;;;;;;15.40;10.50;;;;;;;24.28;60.58;100418.39;1805783;77;22223;-59
2021/07/11 03:16:08;;;;;;;14.20;11.48;;;;;;;24.34;60.59;100414.41;1821405;77;22134;-57
2021/07/11 03:19:02;;;;;;;13.43;11.12;;;;;;;24.40;60.53;100418.52;1809607;77;22570;-59
2021/07/11 03:21:36;;;;;;;14.05;11.90;;;;;;;24.44;60.64;100422.71;1848725;77;22594;-58
2021/07/11 03:24:09;;;;;;;19.17;12.07;;;;;;;24.47;60.72;100427.88;1825431;77;22190;-59
2021/07/11 03:27:02;;;;;;;15.48;12.30;;;;;;;24.53;60.66;100427.42;1815901;77;22174;-58
2021/07/11 03:30:01;;;;;;;12.85;11.55;;;;;;;24.60;60.70;100439.97;1803013;77;22170;-56
2021/07/11 03:32:33;;;;;;;19.85;12.88;;;;;;;24.68;60.60;100429.53;1831185;77;22780;-57
2021/07/11 03:35:41;;;;;;;14.53;12.40;;;;;;;24.74;60.62;100426.91;1825362;77;22183;-57
2021/07/11 03:38:19;;;;;;;13.35;11.93;;;;;;;24.82;60.57;100432.61;1825701;77;22184;-57
2021/07/11 03:40:54;;;;;;;13.22;11.78;;;;;;;24.87;60.63;100429.58;1821720;77;22138;-58
2021/07/11 03:43:28;;;;;;;21.55;15.18;;;;;;;24.92;60.53;100430.98;1796668;77;28531;-58
2021/07/11 03:46:02;;;;;;;21.17;12.40;;;;;;;24.96;60.69;100428.92;1818801;77;22197;-57
2021/07/11 03:48:59;;;;;;;13.53;11.75;;;;;;;25.11;60.21;100434.17;1794246;77;22232;-59
2021/07/11 03:51:35;;;;;;;14.58;12.45;;;;;;;25.23;60.25;100426.52;1837338;77;22130;-57
2021/07/11 03:54:27;;;;;;;15.60;12.05;;;;;;;25.33;60.06;100419.98;1805018;77;22206;-57
2021/07/11 03:57:01;;;;;;;15.85;12.73;;;;;;;25.41;59.94;100423.45;1828603;77;22158;-56
2021/07/11 03:59:34;;;;;;;14.30;12.73;;;;;;;25.49;59.84;100425.12;1803934;77;22202;-58
2021/07/11 04:02:07;;;;;;;14.73;12.28;;;;;;;25.57;59.71;100424.07;1816874;77;22193;-58
2021/07/11 04:04:59;;;;;;;14.25;11.83;;;;;;;25.60;59.79;100431.92;1844538;77;22133;-57
2021/07/11 04:07:34;;;;;;;15.32;12.30;;;;;;;25.68;59.61;100434.88;1811218;77;22190;-58
2021/07/11 04:10:27;;;;;;;13.88;11.30;;;;;;;25.82;59.25;100431.16;1832856;77;22137;-58
2021/07/11 04:13:01;;;;;;;14.07;11.30;;;;;;;25.93;59.13;100424.95;1833455;77;22206;-57
2021/07/11 04:15:57;;;;;;;15.28;12.55;;;;;;;26.08;58.91;100428.77;1834475;77;22588;-58
2021/07/11 04:18:40;;;;;;;16.25;12.45;;;;;;;26.21;58.81;100436.32;1831267;77;22657;-56
2021/07/11 04:21:13;;;;;;;17.00;12.58;;;;;;;26.33;58.71;100434.50;1834513;77;22192;-59
2021/07/11 04:23:47;;;;;;;13.08;11.60;;;;;;;26.49;58.20;100430.13;1794100;77;22769;-59
2021/07/11 04:26:20;;;;;;;13.85;12.35;;;;;;;26.63;58.14;100419.59;1848416;77;22199;-59
2021/07/11 04:29:13;;;;;;;14.65;11.48;;;;;;;26.87;57.75;100424.02;1783536;77;22628;-59
2021/07/11 04:31:46;;;;;;;14.63;11.73;;;;;;;27.04;57.43;100423.16;1834380;77;22176;-57
2021/07/11 04:34:39;;;;;;;14.87;12.88;;;;;;;27.28;56.65;100424.34;1820467;77;22170;-59
2021/07/11 04:37:12;;;;;;;14.33;12.23;;;;;;;27.37;56.36;100417.30;1823904;77;22171;-59
2021/07/11 04:39:45;;;;;;;13.10;11.70;;;;;;;27.50;56.09;100421.22;1885786;74;22119;-59
2021/07/11 04:42:18;;;;;;;17.00;11.73;;;;;;;27.66;55.77;100417.61;1823173;77;22171;-60
2021/07/11 04:45:11;;;;;;;13.32;11.00;;;;;;;27.68;55.90;100421.52;1852235;77;22159;-57
2021/07/11 04:47:44;;;;;;;13.00;11.57;;;;;;;27.85;55.53;100414.20;1800360;77;22242;-61
2021/07/11 04:50:17;;;;;;;16.73;11.97;;;;;;;28.02;54.79;100419.52;1834451;77;22588;-61
2021/07/11 04:53:12;;;;;;;15.58;10.60;;;;;;;28.30;54.24;100420.37;1804749;77;22191;-58
2021/07/11 04:55:47;;;;;;;16.05;11.97;;;;;;;28.49;53.61;100416.91;1801650;77;28065;-60
2021/07/11 04:58:39;;;;;;;12.07;10.45;;;;;;;28.70;53.08;100416.02;1796843;77;22234;-58
2021/07/11 05:01:12;;;;;;;11.78;10.08;;;;;;;28.89;52.56;100409.34;1834473;77;22179;-58
2021/07/11 05:03:45;;;;;;;13.78;10.65;;;;;;;29.12;51.99;100411.84;1799007;77;22665;-61
2021/07/11 05:06:37;;;;;;;12.43;10.53;;;;;;;29.36;51.24;100410.58;1833129;77;22171;-58
2021/07/11 05:09:10;;;;;;;15.50;10.03;;;;;;;29.59;50.79;100405.78;1805965;77;22190;-61
2021/07/11 05:11:44;;;;;;;11.90;10.70;;;;;;;29.77;50.16;100403.72;1821292;77;22186;-61
2021/07/11 05:14:17;;;;;;;11.12;10.08;;;;;;;29.95;49.69;100404.69;1795233;77;22190;-61
2021/07/11 05:17:09;;;;;;;17.73;11.57;;;;;;;30.19;49.16;100401.17;1833606;77;22176;-61
2021/07/11 05:19:42;;;;;;;13.55;10.72;;;;;;;30.40;48.67;100403.69;1806043;77;22209;-61
2021/07/11 05:22:15;;;;;;;13.18;10.40;;;;;;;30.50;48.55;100405.88;1827518;77;22189;-58
2021/07/11 05:25:13;;;;;;;14.00;9.53;;;;;;;30.68;48.24;100411.92;1852798;77;22182;-58
2021/07/11 05:27:46;;;;;;;14.40;10.82;;;;;;;30.80;48.13;100407.98;1845828;77;22230;-57
2021/07/11 05:30:20;;;;;;;13.05;10.65;;;;;;;31.00;47.23;100405.17;1831800;77;22160;-58
2021/07/11 05:32:53;;;;;;;12.30;10.20;;;;;;;31.17;47.20;100401.30;1819532;77;22209;-58
2021/07/11 05:35:26;;;;;;;13.43;10.50;;;;;;;31.26;46.99;100399.89;1834437;77;22636;-62
2021/07/11 05:38:18;;;;;;;14.10;9.73;;;;;;;31.62;46.38;100400.91;1819935;77;22214;-61
2021/07/11 05:40:51;;;;;;;14.75;10.38;;;;;;;31.90;45.66;100400.33;1829384;77;22165;-62
2021/07/11 05:43:25;;;;;;;13.60;9.78;;;;;;;32.03;45.53;100401.27;1837708;77;22169;-62
2021/07/11 05:46:16;;;;;;;14.47;9.98;;;;;;;32.35;44.92;100403.05;1836727;77;22138;-58
2021/07/11 05:49:09;;;;;;;13.88;10.48;;;;;;;32.56;44.43;100399.93;1811638;77;22268;-62
2021/07/11 05:51:42;;;;;;;10.88;9.70;;;;;;;32.59;44.42;100400.45;1852828;77;22606;-63
2021/07/11 05:54:35;;;;;;;14.28;9.63;;;;;;;33.04;43.03;100402.54;1803792;77;22198;-63
2021/07/11 05:57:08;;;;;;;13.90;9.88;;;;;;;33.22;42.50;100398.82;1828323;77;22148;-59
2021/07/11 06:00:00;;;;;;;16.35;9.83;;;;;;;33.41;42.18;100395.48;1827788;77;22178;-59
2021/07/11 06:02:33;;;;;;;12.45;9.48;;;;;;;33.53;41.77;100396.87;1849496;77;22174;-59
2021/07/11 06:05:26;;;;;;;12.80;8.65;;;;;;;33.76;41.47;100401.64;1833649;77;22120;-63
2021/07/11 06:07:59;;;;;;;13.62;8.63;;;;;;;34.10;41.16;100401.98;1823950;77;22221;-62
2021/07/11 06:10:33;;;;;;;9.73;8.55;;;;;;;34.48;40.56;100402.26;1834434;77;22571;-58
2021/07/11 06:13:06;;;;;;;11.33;8.88;;;;;;;34.70;39.76;100405.27;1842068;77;22166;-62
2021/07/11 06:15:58;;;;;;;11.03;8.13;;;;;;;34.99;39.33;100401.93;1828088;77;22159;-62
2021/07/11 06:18:31;;;;;;;9.93;7.53;;;;;;;35.18;38.74;100401.12;1834998;77;22206;-58
2021/07/11 06:21:04;;;;;;;9.45;8.08;;;;;;;35.46;38.13;100395.14;1823985;77;22164;-58
2021/07/11 06:23:37;;;;;;;10.45;7.80;;;;;;;35.73;37.61;100391.52;1801667;77;22186;-58
2021/07/11 06:26:10;;;;;;;10.23;8.08;;;;;;;36.02;36.78;100387.17;1807420;77;22258;-58
2021/07/11 06:28:43;;;;;;;12.82;8.48;;;;;;;36.18;36.24;100387.55;1833174;77;22166;-61
2021/07/11 06:31:36;;;;;;;12.35;8.80;;;;;;;36.21;35.86;100384.94;1830613;77;22177;-61
2021/07/11 06:34:09;;;;;;;10.85;9.18;;;;;;;36.23;35.53;100386.44;1806718;77;22205;-62
2021/07/11 06:36:42;;;;;;;11.55;8.50;;;;;;;36.22;35.16;100388.01;1831920;77;22194;-62
2021/07/11 06:39:35;;;;;;;10.05;8.03;;;;;;;36.09;35.07;100388.12;1800315;77;22222;-58
2021/07/11 06:42:08;;;;;;;11.60;8.90;;;;;;;35.97;35.70;100388.24;1819468;77;22175;-58
2021/07/11 06:44:42;;;;;;;11.25;9.15;;;;;;;36.16;35.25;100392.36;1797213;77;22201;-62
2021/07/11 06:47:34;;;;;;;13.65;8.40;;;;;;;36.33;35.35;100391.66;1811478;77;22562;-63
2021/07/11 06:50:10;;;;;;;12.60;7.95;;;;;;;36.47;35.12;100392.72;1822779;77;22210;-57
2021/07/11 06:53:02;;;;;;;10.63;8.68;;;;;;;36.91;34.37;100401.92;1807849;77;22190;-62
2021/07/11 06:55:36;;;;;;;12.53;8.75;;;;;;;37.86;32.87;100403.27;1820887;77;22661;-57
2021/07/11 06:58:10;;;;;;;9.35;8.45;;;;;;;37.20;33.85;100412.55;1806462;77;22222;-58
2021/07/11 07:03:30;;;;;;;12.20;9.28;;;;;;;36.76;35.02;100419.77;1795109;77;22215;-58
2021/07/11 07:06:08;;;;;;;13.05;10.15;;;;;;;36.97;34.86;100416.27;1817205;77;22206;-58
2021/07/11 07:09:00;;;;;;;11.43;9.03;;;;;;;37.15;34.47;100417.22;1797514;77;22230;-58
2021/07/11 07:11:34;;;;;;;13.58;8.38;;;;;;;37.42;33.78;100420.27;1815098;77;22171;-61
2021/07/11 07:14:26;;;;;;;13.50;9.18;;;;;;;37.54;33.29;100426.63;1805857;77;22182;-58
2021/07/11 07:16:59;;;;;;;13.40;9.55;;;;;;;37.61;33.14;100424.29;1852766;77;22195;-62
2021/07/11 07:19:33;;;;;;;14.10;8.75;;;;;;;37.52;33.35;100424.63;1821949;77;22194;-62
2021/07/11 07:22:06;;;;;;;11.55;9.00;;;;;;;37.46;33.25;100427.11;1834438;77;22184;-61
2021/07/11 07:24:39;;;;;;;13.50;9.58;;;;;;;37.21;33.42;100430.70;1813293;77;22757;-61
2021/07/11 07:27:31;;;;;;;11.35;8.78;;;;;;;37.02;33.85;100430.27;1820904;77;22198;-57
2021/07/11 07:30:06;;;;;;;11.35;9.63;;;;;;;36.86;33.94;100439.53;1827974;77;22191;-58
2021/07/11 07:32:39;;;;;;;10.32;7.97;;;;;;;36.72;33.74;100433.53;1829817;77;22269;-62
2021/07/11 07:35:32;;;;;;;11.93;8.18;;;;;;;36.56;33.83;100425.85;1842600;78;22178;-63
2021/07/11 07:38:06;;;;;;;12.73;7.92;;;;;;;36.50;34.14;100432.09;1818999;77;22212;-62
2021/07/11 07:40:39;;;;;;;10.70;8.13;;;;;;;36.64;34.40;100429.01;1834473;77;22176;-57
2021/07/11 07:43:32;;;;;;;9.00;7.10;;;;;;;36.95;34.11;100429.30;1817593;77;22186;-57
2021/07/11 07:46:05;;;;;;;12.10;6.30;;;;;;;37.35;33.97;100426.20;1834460;77;22195;-63
2021/07/11 07:48:38;;;;;;;7.47;5.28;;;;;;;37.75;32.85;100419.77;1810086;77;22597;-57
2021/07/11 07:51:11;;;;;;;6.05;4.92;;;;;;;38.18;31.61;100423.00;1834492;77;22180;-57
2021/07/11 07:53:44;;;;;;;7.70;4.90;;;;;;;38.55;30.93;100418.70;1807385;77;22186;-62
2021/07/11 07:56:17;;;;;;;6.20;4.85;;;;;;;38.87;30.50;100418.25;1852830;77;22175;-63
2021/07/11 07:59:09;;;;;;;6.03;4.37;;;;;;;38.97;29.98;100419.55;1788459;77;22715;-63
2021/07/11 08:01:42;;;;;;;7.55;4.50;;;;;;;38.86;29.64;100416.01;1834389;77;22180;-58
2021/07/11 08:04:20;;;;;;;7.55;4.97;;;;;;;38.69;29.52;100415.48;1794354;77;22715;-62
2021/07/11 08:07:09;;;;;;;7.85;5.33;;;;;;;38.45;29.78;100410.83;1844233;77;22540;-62
2021/07/11 08:09:42;;;;;;;6.62;5.37;;;;;;;38.57;29.54;100412.47;1819843;77;22217;-58
2021/07/11 08:12:15;;;;;;;7.72;5.58;;;;;;;37.99;30.45;100412.16;1852114;77;22115;-63
2021/07/11 08:14:48;;;;;;;7.67;5.22;;;;;;;37.77;30.81;100414.06;1794714;77;22249;-58
2021/07/11 08:17:41;;;;;;;6.55;4.50;;;;;;;37.68;30.66;100415.27;1847823;77;22648;-58
2021/07/11 08:20:16;;;;;;;9.75;5.00;;;;;;;37.37;31.12;100418.63;1829868;77;22163;-61
2021/07/11 08:22:49;;;;;;;7.12;5.33;;;;;;;37.37;31.24;100420.00;1805505;77;28099;-58
2021/07/11 08:25:42;;;;;;;9.13;5.30;;;;;;;37.22;31.40;100415.94;1828711;77;22174;-58
2021/07/11 08:28:15;;;;;;;9.75;5.17;;;;;;;37.10;31.68;100418.31;1832501;77;22169;-58
2021/07/11 08:30:48;;;;;;;12.10;5.60;;;;;;;37.15;31.61;100424.08;1834525;77;22604;-58
2021/07/11 08:33:21;;;;;;;6.70;5.03;;;;;;;37.05;31.86;100415.33;1838245;77;22182;-59
2021/07/11 08:35:54;;;;;;;9.93;5.05;;;;;;;36.97;32.16;100417.64;1834483;77;22171;-58
2021/07/11 08:38:27;;;;;;;6.53;5.30;;;;;;;36.94;32.42;100419.91;1819063;77;22594;-62
2021/07/11 08:41:01;;;;;;;6.60;4.62;;;;;;;36.90;32.68;100420.28;1830620;77;22183;-62
2021/07/11 08:43:37;;;;;;;7.28;5.15;;;;;;;37.02;32.60;100422.57;1817425;77;22194;-58
2021/07/11 08:46:11;;;;;;;7.75;4.97;;;;;;;36.91;32.75;100422.48;1832623;77;22159;-62
2021/07/11 08:48:47;;;;;;;10.18;5.37;;;;;;;36.81;33.23;100421.42;1833230;77;22165;-62
2021/07/11 08:51:19;;;;;;;6.83;5.40;;;;;;;36.75;33.29;100416.20;1819704;77;22181;-58
2021/07/11 08:54:12;;;;;;;6.03;4.80;;;;;;;36.63;33.16;100416.87;1809120;77;22210;-58
2021/07/11 08:56:45;;;;;;;6.55;4.92;;;;;;;36.59;33.37;100413.64;1834480;77;22175;-58
2021/07/11 08:59:39;;;;;;;8.48;5.28;;;;;;;36.46;33.45;100412.91;1818081;77;22177;-58
2021/07/11 09:02:13;;;;;;;11.95;5.50;;;;;;;36.35;34.12;100416.98;1852781;77;22175;-58
2021/07/11 09:05:06;;;;;;;7.90;5.60;;;;;;;36.25;34.52;100409.55;1834385;77;22140;-62
2021/07/11 09:07:40;;;;;;;11.83;5.25;;;;;;;36.11;34.88;100398.91;1829823;77;22257;-62
2021/07/11 09:10:13;;;;;;;8.53;5.10;;;;;;;36.01;35.05;100401.39;1821744;77;22140;-62
2021/07/11 09:13:11;;;;;;;9.28;5.22;;;;;;;37.40;31.94;100403.15;1824039;77;22166;-63
2021/07/11 09:15:50;;;;;;;6.15;4.83;;;;;;;36.71;33.54;100404.41;1834485;77;22160;-62
2021/07/11 09:18:42;;;;;;;6.10;5.28;;;;;;;37.64;31.51;100399.70;1792403;77;22199;-64
2021/07/11 09:21:34;;;;;;;9.38;5.33;;;;;;;37.09;32.64;100402.94;1852809;77;22135;-58
2021/07/11 09:24:11;;;;;;;7.67;5.62;;;;;;;36.05;34.16;100410.61;1804804;77;22648;-59
2021/07/11 09:27:16;;;;;;;9.58;5.70;;;;;;;35.84;35.16;100407.52;1834371;77;22155;-62
2021/07/11 09:29:49;;;;;;;10.78;6.53;;;;;;;35.85;35.38;100406.48;1816415;77;27988;-62
2021/07/11 09:32:41;;;;;;;8.60;6.00;;;;;;;36.06;35.47;100404.09;1819611;77;22653;-58
2021/07/11 09:35:23;;;;;;;6.33;5.33;;;;;;;36.05;36.18;100402.39;1834447;77;22155;-58
2021/07/11 09:38:00;;;;;;;9.30;5.35;;;;;;;36.06;36.46;100398.09;1826140;77;22166;-58
2021/07/11 09:40:33;;;;;;;5.95;5.25;;;;;;;36.13;36.50;100399.58;1817451;77;22171;-58
2021/07/11 09:43:12;;;;;;;6.80;5.28;;;;;;;36.17;36.43;100394.06;1816663;77;22609;-62
2021/07/11 09:45:45;;;;;;;7.30;5.83;;;;;;;36.31;36.17;100398.68;1834496;77;22140;-58
2021/07/11 09:48:18;;;;;;;6.65;5.67;;;;;;;36.41;35.55;100398.42;1820875;77;22598;-62
2021/07/11 09:50:51;;;;;;;9.88;5.42;;;;;;;36.53;35.41;100395.22;1809383;77;22212;-62
2021/07/11 09:53:43;;;;;;;7.53;5.87;;;;;;;36.57;35.37;100393.30;1815433;77;22174;-58
2021/07/11 09:56:41;;;;;;;9.90;5.60;;;;;;;36.61;34.72;100391.02;1852863;77;22183;-62
2021/07/11 09:59:16;;;;;;;6.70;4.90;;;;;;;36.63;31.90;100394.41;1803661;77;22194;-58
2021/07/11 10:01:49;;;;;;;8.70;5.05;;;;;;;36.64;31.36;100390.63;1834510;77;22603;-62
2021/07/11 10:04:42;;;;;;;6.58;4.70;;;;;;;36.66;30.79;100379.46;1820015;77;22185;-58
2021/07/11 10:07:15;;;;;;;6.33;4.87;;;;;;;36.55;30.96;100386.28;1852802;77;22179;-61
2021/07/11 10:09:49;;;;;;;10.53;5.40;;;;;;;36.40;31.31;100391.75;1820192;77;22119;-58
2021/07/11 10:12:22;;;;;;;7.30;4.78;;;;;;;36.22;32.55;100392.95;1833842;77;22625;-58
2021/07/11 10:15:18;;;;;;;5.37;4.87;;;;;;;36.04;33.07;100388.38;1834446;77;22136;-57
2021/07/11 10:18:14;;;;;;;5.72;4.65;;;;;;;35.92;32.57;100393.42;1819207;77;22662;-58
2021/07/11 10:20:49;;;;;;;8.98;5.45;;;;;;;36.02;30.14;100381.69;1818940;77;27933;-58
2021/07/11 10:23:41;;;;;;;5.85;4.83;;;;;;;36.15;28.14;100380.53;1816135;77;22174;-62
2021/07/11 10:26:16;;;;;;;6.47;4.10;;;;;;;36.37;28.09;100375.68;1830663;77;22591;-62
2021/07/11 10:28:51;;;;;;;6.70;4.03;;;;;;;36.72;26.86;100364.48;1768141;77;22216;-57
2021/07/11 10:31:49;;;;;;;7.08;4.00;;;;;;;37.08;27.93;100358.72;1822571;77;22147;-58
2021/07/11 10:34:34;;;;;;;6.92;4.17;;;;;;;37.60;26.56;100355.33;1806624;77;22202;-58
2021/07/11 10:37:26;;;;;;;6.05;4.80;;;;;;;38.04;26.09;100353.89;1819419;77;22186;-63
2021/07/11 10:40:11;;;;;;;7.75;4.15;;;;;;;38.59;27.50;100352.63;1852522;77;22595;-62
2021/07/11 10:42:45;;;;;;;8.70;4.97;;;;;;;39.46;27.63;100345.71;1805734;77;29089;-58
2021/07/11 10:45:45;;;;;;;6.00;4.08;;;;;;;40.03;27.97;100350.25;1831490;77;22185;-62
2021/07/11 10:48:24;;;;;;;5.85;4.45;;;;;;;40.55;27.75;100343.98;1821091;77;22178;-63
2021/07/11 10:50:58;;;;;;;8.35;4.12;;;;;;;40.78;28.01;100337.95;1815254;77;22170;-58
2021/07/11 10:53:50;;;;;;;5.90;4.03;;;;;;;40.66;27.01;100345.19;1829915;77;22198;-58
2021/07/11 10:56:23;;;;;;;6.00;4.80;;;;;;;40.71;26.51;100349.01;1834457;77;22179;-58
2021/07/11 10:58:57;;;;;;;6.75;4.70;;;;;;;40.52;25.89;100345.24;1812579;77;22206;-62
2021/07/11 11:01:49;;;;;;;6.60;4.33;;;;;;;40.44;26.83;100348.23;1826726;77;22154;-58
2021/07/11 11:04:23;;;;;;;8.13;4.65;;;;;;;40.38;27.67;100334.80;1801539;77;22190;-58
2021/07/11 11:07:45;;;;;;;7.97;4.47;;;;;;;40.16;28.50;100328.70;1841735;77;22279;-63
2021/07/11 11:10:33;;;;;;;7.78;5.10;;;;;;;39.93;28.74;100323.15;1827984;77;22111;-62
2021/07/11 11:13:30;;;;;;;5.70;4.62;;;;;;;39.62;29.14;100332.88;1807921;77;22742;-62
2021/07/11 11:16:20;;;;;;;8.38;5.12;;;;;;;39.29;29.51;100332.32;1834424;77;22627;-62
2021/07/11 11:18:54;;;;;;;8.50;5.35;;;;;;;39.02;29.52;100330.05;1831028;77;22233;-57
2021/07/11 11:21:54;;;;;;;5.58;4.65;;;;;;;38.61;30.07;100321.66;1836152;77;22163;-61
2021/07/11 11:24:27;;;;;;;12.47;4.97;;;;;;;38.05;30.44;100332.24;1805560;77;22190;-62
2021/07/11 11:27:32;;;;;;;7.78;5.30;;;;;;;37.52;30.88;100348.61;1852789;77;22131;-62
2021/07/11 11:30:18;;;;;;;8.10;5.55;;;;;;;37.08;31.77;100354.60;1816467;77;22181;-57
2021/07/11 11:32:55;;;;;;;8.40;6.23;;;;;;;36.58;32.93;100361.23;1811875;77;28633;-58
2021/07/11 11:35:34;;;;;;;8.85;5.60;;;;;;;35.79;34.57;100364.78;1834468;77;22200;-61
2021/07/11 11:38:07;;;;;;;7.60;5.70;;;;;;;35.11;35.24;100370.05;1841672;77;22209;-57
2021/07/11 11:40:59;;;;;;;10.85;6.00;;;;;;;34.48;36.37;100374.94;1809973;77;22178;-58
2021/07/11 11:43:32;;;;;;;23.57;7.90;;;;;;;33.37;37.74;100378.56;1819773;77;22598;-62
2021/07/11 11:46:28;;;;;;;15.20;5.92;;;;;;;32.43;37.95;100365.81;1830153;77;22159;-62
2021/07/11 11:49:06;;;;;;;11.10;6.60;;;;;;;31.73;38.57;100370.78;1801901;77;22205;-60
2021/07/11 11:51:58;;;;;;;7.72;5.80;;;;;;;31.13;38.48;100373.03;1852068;77;22574;-57
2021/07/11 11:54:37;;;;;;;9.13;5.72;;;;;;;30.62;39.53;100385.36;1804408;77;22206;-62
2021/07/11 11:57:11;;;;;;;11.65;6.17;;;;;;;30.36;39.93;100379.20;1833073;77;22172;-58
2021/07/11 12:00:06;;;;;;;7.80;4.58;;;;;;;30.17;40.24;100387.77;1834411;77;22167;-62
2021/07/11 12:02:39;;;;;;;6.40;5.12;;;;;;;30.06;40.42;100383.34;1829181;77;22245;-58
2021/07/11 12:05:14;;;;;;;9.48;5.97;;;;;;;29.97;40.87;100390.99;1834479;77;22612;-58
2021/07/11 12:08:06;;;;;;;13.22;5.65;;;;;;;29.95;41.77;100395.70;1813380;77;22210;-61
2021/07/11 12:10:39;;;;;;;13.45;5.22;;;;;;;29.95;42.75;100423.67;1834528;77;22172;-57
2021/07/11 12:13:12;;;;;;;10.63;5.45;;;;;;;29.94;43.24;100483.01;1840072;77;23255;-63
2021/07/11 12:15:46;;;;;;;6.35;4.85;;;;;;;30.04;43.03;100473.53;1850533;77;22174;-58
2021/07/11 12:18:19;;;;;;;8.13;5.67;;;;;;;30.02;42.50;100454.34;1788616;77;22299;-57
2021/07/11 12:20:54;;;;;;;7.72;5.55;;;;;;;29.88;42.73;100454.25;1852803;77;22591;-57